VKG1755 ESSA-GCLP
Flight info
| Callsign | VKG1755 |
|---|---|
| Flight time | N/A |
| Altitude | 38000 |
| Route | ARS N623 BEDLA N866 LAPSI DCT UPGAS DCT TIPAN DCT EZTIM UM185 DIGSU DCT IBNID M195 LORKU DCT EBOMO DCT KORUL DCT AGADO DCT BEXAL DCT SAMAR |
| Aircraft | A339/H-SADE1E2E3GHIJ3J5M1P2RWXY/LB2D1 |
Departure
| Time | N/A |
|---|---|
| Airport | Stockholm-Arlanda Airport (ESSA) |
Arrival
| Time | 2026-04-27 15:35 |
|---|---|
| Airport | Gran Canaria Airport (GCLP) |
| Time | Latitude | Longitude | Altitude | Speed | Heading |
|---|---|---|---|---|---|
| 2026-04-27 15:20 | 28.25038 | -14.90510 | 21942 ft | 411 kts | 191° |
| 2026-04-27 15:20 | 28.22258 | -14.91009 | 21305 ft | 407 kts | 191° |
| 2026-04-27 15:20 | 28.19469 | -14.91511 | 20658 ft | 402 kts | 191° |
| 2026-04-27 15:21 | 28.16719 | -14.92004 | 20019 ft | 398 kts | 191° |
| 2026-04-27 15:21 | 28.14000 | -14.92491 | 19408 ft | 393 kts | 191° |
| 2026-04-27 15:21 | 28.11317 | -14.92975 | 18778 ft | 388 kts | 191° |
| 2026-04-27 15:21 | 28.09554 | -14.93292 | 18363 ft | 386 kts | 191° |
| 2026-04-27 15:22 | 28.06917 | -14.93764 | 17628 ft | 382 kts | 191° |
| 2026-04-27 15:22 | 28.04368 | -14.94497 | 16827 ft | 376 kts | 204° |
| 2026-04-27 15:22 | 28.02756 | -14.95296 | 16321 ft | 373 kts | 207° |
| 2026-04-27 15:22 | 28.01928 | -14.95719 | 16064 ft | 372 kts | 206° |
| 2026-04-27 15:23 | 27.99573 | -14.96922 | 15391 ft | 369 kts | 207° |
| 2026-04-27 15:23 | 27.97281 | -14.98089 | 15166 ft | 351 kts | 207° |
| 2026-04-27 15:23 | 27.95125 | -14.99178 | 14934 ft | 328 kts | 206° |
| 2026-04-27 15:23 | 27.93107 | -15.00188 | 14669 ft | 308 kts | 206° |
| 2026-04-27 15:24 | 27.91204 | -15.01242 | 14079 ft | 303 kts | 216° |
| 2026-04-27 15:24 | 27.89689 | -15.02839 | 13569 ft | 295 kts | 232° |
| 2026-04-27 15:24 | 27.88328 | -15.04576 | 13017 ft | 294 kts | 231° |
| 2026-04-27 15:24 | 27.86981 | -15.06305 | 12467 ft | 292 kts | 232° |
| 2026-04-27 15:25 | 27.85658 | -15.08003 | 11973 ft | 289 kts | 231° |
| 2026-04-27 15:25 | 27.84336 | -15.09714 | 11572 ft | 291 kts | 231° |
| 2026-04-27 15:25 | 27.83005 | -15.11448 | 11194 ft | 291 kts | 231° |
| 2026-04-27 15:25 | 27.81691 | -15.13165 | 10732 ft | 287 kts | 232° |
| 2026-04-27 15:26 | 27.80393 | -15.14870 | 10265 ft | 284 kts | 232° |
| 2026-04-27 15:26 | 27.79122 | -15.16555 | 10075 ft | 284 kts | 232° |
| 2026-04-27 15:26 | 27.78103 | -15.18466 | 10024 ft | 283 kts | 246° |
| 2026-04-27 15:26 | 27.77247 | -15.20478 | 10022 ft | 283 kts | 246° |
| 2026-04-27 15:27 | 27.76392 | -15.22487 | 10022 ft | 283 kts | 246° |
| 2026-04-27 15:27 | 27.75540 | -15.24482 | 9787 ft | 281 kts | 246° |
| 2026-04-27 15:27 | 27.74692 | -15.26467 | 9346 ft | 279 kts | 246° |
| 2026-04-27 15:27 | 27.73853 | -15.28430 | 8808 ft | 276 kts | 246° |
| 2026-04-27 15:28 | 27.73028 | -15.30350 | 8265 ft | 274 kts | 246° |
| 2026-04-27 15:28 | 27.72199 | -15.32276 | 7685 ft | 271 kts | 246° |
| 2026-04-27 15:28 | 27.71386 | -15.34163 | 7407 ft | 258 kts | 246° |
| 2026-04-27 15:28 | 27.70616 | -15.35940 | 7097 ft | 249 kts | 246° |
| 2026-04-27 15:29 | 27.69947 | -15.37729 | 6615 ft | 246 kts | 259° |
| 2026-04-27 15:29 | 27.69929 | -15.39614 | 6151 ft | 239 kts | 286° |
| 2026-04-27 15:29 | 27.70674 | -15.41231 | 5608 ft | 232 kts | 314° |
| 2026-04-27 15:29 | 27.71975 | -15.42247 | 5072 ft | 227 kts | 335° |
| 2026-04-27 15:30 | 27.73421 | -15.42958 | 4498 ft | 226 kts | 338° |
| 2026-04-27 15:30 | 27.74858 | -15.43652 | 3944 ft | 223 kts | 337° |
| 2026-04-27 15:30 | 27.76245 | -15.44396 | 3411 ft | 218 kts | 335° |
| 2026-04-27 15:30 | 27.77653 | -15.44911 | 3017 ft | 209 kts | 354° |
| 2026-04-27 15:31 | 27.79042 | -15.44788 | 2757 ft | 199 kts | 12° |
| 2026-04-27 15:31 | 27.80340 | -15.44333 | 2500 ft | 193 kts | 19° |
| 2026-04-27 15:31 | 27.81575 | -15.43793 | 2265 ft | 188 kts | 20° |
| 2026-04-27 15:31 | 27.82753 | -15.43270 | 1997 ft | 175 kts | 19° |
| 2026-04-27 15:32 | 27.83828 | -15.42800 | 1799 ft | 158 kts | 19° |
| 2026-04-27 15:32 | 27.84814 | -15.42363 | 1578 ft | 143 kts | 20° |
| 2026-04-27 15:32 | 27.85706 | -15.41984 | 1416 ft | 136 kts | 18° |
| 2026-04-27 15:32 | 27.86624 | -15.41563 | 1220 ft | 146 kts | 22° |
| 2026-04-27 15:33 | 27.87523 | -15.41132 | 1006 ft | 138 kts | 21° |
| 2026-04-27 15:33 | 27.88416 | -15.40725 | 812 ft | 138 kts | 20° |
| 2026-04-27 15:33 | 27.89324 | -15.40364 | 672 ft | 142 kts | 18° |
| 2026-04-27 15:33 | 27.90224 | -15.39965 | 506 ft | 134 kts | 20° |
| 2026-04-27 15:34 | 27.91083 | -15.39590 | 296 ft | 131 kts | 20° |
| 2026-04-27 15:34 | 27.91922 | -15.39216 | 113 ft | 128 kts | 20° |
| 2026-04-27 15:34 | 27.92693 | -15.38876 | 67 ft | 101 kts | 21° |
| 2026-04-27 15:34 | 27.93216 | -15.38651 | 64 ft | 68 kts | 21° |
| 2026-04-27 15:35 | 27.93580 | -15.38490 | 59 ft | 40 kts | 21° |
| 2026-04-27 15:35 | 27.85182 | -15.42199 | 1496 ft | 136 kts | 19° |
| 2026-04-27 15:35 | 27.86072 | -15.41822 | 1323 ft | 142 kts | 20° |